createdAt,value
2019-04-30T00:01:33.563Z,101997.37
2019-04-30T00:04:05.629Z,101995.84
2019-04-30T00:06:39.313Z,101999.47
2019-04-30T00:09:09.817Z,101996.47
2019-04-30T00:11:37.407Z,101998.72
2019-04-30T00:14:05.775Z,101995.71
2019-04-30T00:16:36.339Z,101996.95
2019-04-30T00:19:06.170Z,101994.37
2019-04-30T00:21:36.102Z,101992.89
2019-04-30T00:24:06.218Z,101993.66
2019-04-30T00:26:35.441Z,101995.16
2019-04-30T00:29:05.146Z,101997.81
2019-04-30T00:31:34.927Z,102000.83
2019-04-30T00:34:05.039Z,101996.56
2019-04-30T00:36:34.304Z,101997.23
2019-04-30T00:39:07.184Z,101992.72
2019-04-30T00:41:39.936Z,101989.05
2019-04-30T00:44:07.156Z,101985.75
2019-04-30T00:46:36.393Z,101980.31
2019-04-30T00:49:09.823Z,101975.97
2019-04-30T00:51:35.564Z,101972.50
2019-04-30T00:54:05.663Z,101964.88
2019-04-30T00:56:35.537Z,101963.17
2019-04-30T00:59:07.029Z,101963.17
2019-04-30T01:01:43.494Z,101963.55
2019-04-30T01:04:15.090Z,101965.54
2019-04-30T01:06:46.259Z,101962.52
2019-04-30T01:09:15.582Z,101962.41
2019-04-30T01:11:47.912Z,101962.41
2019-04-30T01:14:14.164Z,101969.37
2019-04-30T01:16:42.606Z,101965.33
2019-04-30T01:19:26.591Z,101960.72
2019-04-30T01:21:46.920Z,101952.81
2019-04-30T01:24:12.587Z,101949.52
2019-04-30T01:26:41.063Z,101951.00
2019-04-30T01:29:10.255Z,101961.09
2019-04-30T01:31:40.811Z,101959.57
2019-04-30T01:34:13.792Z,101958.36
2019-04-30T01:36:43.437Z,101956.76
2019-04-30T01:39:12.983Z,101957.97
2019-04-30T01:41:41.641Z,101958.23
2019-04-30T01:44:11.900Z,101956.84
2019-04-30T01:46:43.250Z,101955.58
2019-04-30T01:49:10.323Z,101946.64
2019-04-30T01:51:38.839Z,101948.23
2019-04-30T01:54:09.260Z,101943.44
2019-04-30T01:56:49.883Z,101943.44
2019-04-30T01:59:19.971Z,101948.04
2019-04-30T02:01:50.063Z,101937.20
2019-04-30T02:04:19.576Z,101939.17
2019-04-30T02:06:49.433Z,101939.17
2019-04-30T02:09:18.834Z,101949.86
2019-04-30T02:11:48.829Z,101949.34
2019-04-30T02:14:18.912Z,101949.34
2019-04-30T02:16:49.315Z,101947.78
2019-04-30T02:19:18.856Z,101948.00
2019-04-30T02:21:48.786Z,101948.20
2019-04-30T02:24:19.210Z,101947.39
2019-04-30T02:26:48.506Z,101938.42
2019-04-30T02:29:19.002Z,101937.11
2019-04-30T02:31:47.262Z,101935.61
2019-04-30T02:34:21.714Z,101935.48
2019-04-30T02:36:52.136Z,101929.67
2019-04-30T02:39:21.481Z,101926.70
2019-04-30T02:41:50.872Z,101926.70
2019-04-30T02:44:20.624Z,101925.52
2019-04-30T02:46:52.941Z,101922.33
2019-04-30T02:49:25.801Z,101920.15
2019-04-30T02:51:59.390Z,101924.48
2019-04-30T02:54:30.276Z,101923.34
2019-04-30T02:57:00.377Z,101920.33
2019-04-30T02:59:30.096Z,101924.08
2019-04-30T03:01:59.741Z,101927.84
2019-04-30T03:04:29.372Z,101927.64
2019-04-30T03:06:59.779Z,101924.08
2019-04-30T03:09:29.713Z,101927.45
2019-04-30T03:12:00.299Z,101921.13
2019-04-30T03:14:30.123Z,101921.37
2019-04-30T03:17:10.580Z,101926.84
2019-04-30T03:19:40.621Z,101922.47
2019-04-30T03:22:20.124Z,101919.97
2019-04-30T03:24:50.160Z,101919.09
2019-04-30T03:27:20.472Z,101914.70
2019-04-30T03:29:50.280Z,101918.00
2019-04-30T03:32:22.406Z,101926.33
2019-04-30T03:34:52.215Z,101930.56
2019-04-30T03:37:23.425Z,101923.93
2019-04-30T03:39:51.837Z,101925.15
2019-04-30T03:42:20.278Z,101926.18
2019-04-30T03:44:49.558Z,101923.34
2019-04-30T03:47:20.251Z,101920.71
2019-04-30T03:49:49.854Z,101925.41
2019-04-30T03:52:19.680Z,101925.03
2019-04-30T03:54:52.137Z,101921.84
2019-04-30T03:57:20.787Z,101914.70
2019-04-30T03:59:49.981Z,101918.81
2019-04-30T04:02:30.065Z,101911.95
2019-04-30T04:05:01.147Z,101917.90
2019-04-30T04:07:52.564Z,101913.48
2019-04-30T04:10:35.802Z,101910.75
2019-04-30T04:13:04.188Z,101906.80
2019-04-30T04:15:32.632Z,101913.19
2019-04-30T04:18:01.086Z,101907.77
2019-04-30T04:20:29.963Z,101905.70
2019-04-30T04:22:59.860Z,101908.83
2019-04-30T04:25:29.969Z,101909.88
2019-04-30T04:28:00.333Z,101906.69
2019-04-30T04:30:30.053Z,101905.49
2019-04-30T04:32:59.962Z,101906.81
2019-04-30T04:35:29.831Z,101917.14
2019-04-30T04:38:00.383Z,101909.17
2019-04-30T04:40:30.215Z,101916.31
2019-04-30T04:43:00.279Z,101913.49
2019-04-30T04:45:30.486Z,101911.22
2019-04-30T04:48:00.065Z,101915.13
2019-04-30T04:50:31.588Z,101915.13
2019-04-30T04:52:59.996Z,101915.20
2019-04-30T04:55:30.818Z,101908.75
2019-04-30T04:57:59.874Z,101910.50
2019-04-30T05:00:32.665Z,101909.34
2019-04-30T05:03:05.145Z,101917.45
2019-04-30T05:05:32.806Z,101915.33
2019-04-30T05:08:01.170Z,101909.22
2019-04-30T05:10:29.606Z,101911.08
2019-04-30T05:12:59.238Z,101913.12
2019-04-30T05:15:29.481Z,101910.30
2019-04-30T05:17:59.193Z,101915.06
2019-04-30T05:20:29.191Z,101915.08
2019-04-30T05:22:58.526Z,101910.73
2019-04-30T05:25:27.037Z,101912.20
2019-04-30T05:27:55.519Z,101914.47
2019-04-30T05:30:23.918Z,101906.94
2019-04-30T05:32:52.365Z,101909.22
2019-04-30T05:35:20.868Z,101913.45
2019-04-30T05:37:49.591Z,101906.48
2019-04-30T05:40:18.876Z,101906.27
2019-04-30T05:42:49.453Z,101900.23
2019-04-30T05:45:19.245Z,101898.45
2019-04-30T05:47:50.227Z,101896.28
2019-04-30T05:50:19.802Z,101897.70
2019-04-30T05:52:49.426Z,101900.44
2019-04-30T05:55:19.727Z,101898.27
2019-04-30T05:57:56.077Z,101894.38
2019-04-30T06:00:19.708Z,101897.86
2019-04-30T06:02:49.713Z,101901.13
2019-04-30T06:05:18.887Z,101890.61
2019-04-30T06:07:51.678Z,101897.63
2019-04-30T06:10:19.680Z,101890.13
2019-04-30T06:12:52.429Z,101892.59
2019-04-30T06:15:25.392Z,101883.53
2019-04-30T06:18:00.351Z,101882.36
2019-04-30T06:20:24.723Z,101884.63
2019-04-30T06:22:53.458Z,101883.99
2019-04-30T06:25:31.537Z,101882.20
2019-04-30T06:27:56.306Z,101876.95
2019-04-30T06:30:25.738Z,101877.78
2019-04-30T06:32:54.994Z,101881.06
2019-04-30T06:35:24.066Z,101875.31
2019-04-30T06:37:52.476Z,101883.81
2019-04-30T06:40:21.070Z,101878.59
2019-04-30T06:42:49.705Z,101878.38
2019-04-30T06:45:19.127Z,101866.20
2019-04-30T06:47:49.023Z,101869.25
2019-04-30T06:50:19.372Z,101865.91
2019-04-30T06:52:56.794Z,101863.45
2019-04-30T06:55:21.870Z,101854.80
2019-04-30T06:57:50.358Z,101853.87
2019-04-30T07:00:20.667Z,101860.18
2019-04-30T07:02:49.522Z,101857.16
2019-04-30T07:05:18.598Z,101854.02
2019-04-30T07:08:09.212Z,101854.49
2019-04-30T07:10:37.441Z,101853.84
2019-04-30T07:13:08.793Z,101850.84
2019-04-30T07:15:38.995Z,101859.41
2019-04-30T07:18:09.071Z,101856.25
2019-04-30T07:20:38.748Z,101854.03
2019-04-30T07:23:09.186Z,101853.09
2019-04-30T07:25:39.055Z,101861.98
2019-04-30T07:28:09.046Z,101847.68
2019-04-30T07:30:39.479Z,101850.01
2019-04-30T07:33:09.523Z,101849.86
2019-04-30T07:35:39.853Z,101845.77
2019-04-30T07:38:09.361Z,101848.82
2019-04-30T07:40:39.057Z,101843.80
2019-04-30T07:43:09.160Z,101846.20
2019-04-30T07:45:39.231Z,101847.00
2019-04-30T07:48:09.267Z,101838.25
2019-04-30T07:50:40.480Z,101847.80
2019-04-30T07:53:11.316Z,101838.85
2019-04-30T07:55:39.337Z,101845.88
2019-04-30T07:58:09.019Z,101847.99
2019-04-30T08:00:40.341Z,101845.55
2019-04-30T08:03:10.741Z,101848.05
2019-04-30T08:05:41.238Z,101843.80
2019-04-30T08:08:20.826Z,101839.80
2019-04-30T08:10:39.791Z,101845.55
2019-04-30T08:13:13.643Z,101841.16
2019-04-30T08:15:42.161Z,101845.33
2019-04-30T08:18:08.750Z,101842.12
2019-04-30T08:20:39.213Z,101838.77
2019-04-30T08:23:20.338Z,101846.80
2019-04-30T08:25:39.075Z,101845.83
2019-04-30T08:28:09.110Z,101846.22
2019-04-30T08:30:39.143Z,101845.20
2019-04-30T08:33:09.444Z,101850.20
2019-04-30T08:35:39.768Z,101847.95
2019-04-30T08:38:10.587Z,101850.52
2019-04-30T08:40:47.253Z,101850.52
2019-04-30T08:43:09.515Z,101853.90
2019-04-30T08:45:38.543Z,101850.37
2019-04-30T08:48:09.039Z,101849.56
2019-04-30T08:50:39.302Z,101851.52
2019-04-30T08:53:10.390Z,101853.81
2019-04-30T08:55:39.148Z,101849.39
2019-04-30T08:58:12.431Z,101856.20
2019-04-30T09:00:38.577Z,101856.44
2019-04-30T09:03:09.362Z,101849.34
2019-04-30T09:05:39.500Z,101847.87
2019-04-30T09:08:09.672Z,101849.67
2019-04-30T09:10:39.331Z,101847.94
2019-04-30T09:13:09.158Z,101840.44
2019-04-30T09:15:37.629Z,101850.99
2019-04-30T09:18:10.252Z,101841.91
2019-04-30T09:20:36.210Z,101840.37
2019-04-30T09:23:04.695Z,101844.95
2019-04-30T09:25:33.104Z,101838.69
2019-04-30T09:28:04.293Z,101837.25
2019-04-30T09:30:31.714Z,101836.97
2019-04-30T09:33:03.524Z,101834.06
2019-04-30T09:35:32.295Z,101829.24
2019-04-30T09:38:01.992Z,101829.02
2019-04-30T09:40:32.493Z,101830.55
2019-04-30T09:43:00.723Z,101825.00
2019-04-30T09:45:29.133Z,101831.14
2019-04-30T09:47:59.244Z,101820.24
2019-04-30T09:50:28.955Z,101822.55
2019-04-30T09:52:59.836Z,101825.22
2019-04-30T09:55:29.029Z,101817.55
2019-04-30T09:57:58.900Z,101816.13
2019-04-30T10:00:29.311Z,101812.84
2019-04-30T10:02:59.905Z,101815.85
2019-04-30T10:05:29.209Z,101816.06
2019-04-30T10:07:59.418Z,101815.59
2019-04-30T10:10:29.578Z,101818.45
2019-04-30T10:12:59.363Z,101809.94
2019-04-30T10:15:35.215Z,101805.75
2019-04-30T10:18:03.759Z,101808.14
2019-04-30T10:20:41.785Z,101809.57
2019-04-30T10:23:12.902Z,101803.95
2019-04-30T10:25:41.327Z,101804.71
2019-04-30T10:28:14.052Z,101798.23
2019-04-30T10:30:42.511Z,101795.47
2019-04-30T10:33:10.918Z,101783.69
2019-04-30T10:35:41.422Z,101789.34
2019-04-30T10:38:10.013Z,101780.98
2019-04-30T10:40:39.691Z,101775.88
2019-04-30T10:43:08.860Z,101782.89
2019-04-30T10:45:38.806Z,101775.39
2019-04-30T10:48:07.509Z,101768.53
2019-04-30T10:50:35.926Z,101768.94
2019-04-30T10:53:04.395Z,101769.64
2019-04-30T10:55:32.821Z,101775.75
2019-04-30T10:58:01.224Z,101767.94
2019-04-30T11:00:41.986Z,101771.94
2019-04-30T11:03:19.123Z,101764.88
2019-04-30T11:05:41.432Z,101769.74
2019-04-30T11:08:10.001Z,101763.70
2019-04-30T11:10:39.902Z,101766.20
2019-04-30T11:13:12.424Z,101753.70
2019-04-30T11:15:41.100Z,101751.98
2019-04-30T11:18:09.754Z,101749.75
2019-04-30T11:20:39.724Z,101740.16
2019-04-30T11:23:14.695Z,101747.48
2019-04-30T11:25:41.199Z,101746.00
2019-04-30T11:28:09.404Z,101744.02
2019-04-30T11:30:39.207Z,101744.77
2019-04-30T11:33:08.213Z,101743.12
2019-04-30T11:35:36.853Z,101743.60
2019-04-30T11:38:05.516Z,101733.53
2019-04-30T11:40:37.416Z,101735.11
2019-04-30T11:43:04.307Z,101725.44
2019-04-30T11:45:53.883Z,101731.61
2019-04-30T11:48:22.347Z,101732.19
2019-04-30T11:50:50.845Z,101721.98
2019-04-30T11:53:25.383Z,101716.03
2019-04-30T11:55:49.639Z,101719.20
2019-04-30T11:58:21.754Z,101721.35
2019-04-30T12:00:49.474Z,101720.94
2019-04-30T12:03:19.128Z,101702.85
2019-04-30T12:05:50.238Z,101705.07
2019-04-30T12:08:39.329Z,101707.75
2019-04-30T12:11:09.365Z,101699.66
2019-04-30T12:13:37.770Z,101698.09
2019-04-30T12:16:06.318Z,101692.45
2019-04-30T12:18:38.377Z,101686.72
2019-04-30T12:21:09.210Z,101690.72
2019-04-30T12:23:37.621Z,101696.05
2019-04-30T12:26:06.050Z,101698.81
2019-04-30T12:28:34.466Z,101692.61
2019-04-30T12:31:05.605Z,101691.94
2019-04-30T12:33:33.019Z,101687.02
2019-04-30T12:36:01.647Z,101683.02
2019-04-30T12:38:32.741Z,101685.03
2019-04-30T12:41:01.198Z,101683.16
2019-04-30T12:43:29.605Z,101687.97
2019-04-30T12:46:04.895Z,101680.67
2019-04-30T12:48:39.641Z,101687.82
2019-04-30T12:51:09.896Z,101681.27
2019-04-30T12:53:55.060Z,101678.16
2019-04-30T12:56:27.143Z,101670.55
2019-04-30T12:58:55.400Z,101671.97
2019-04-30T13:01:31.781Z,101669.34
2019-04-30T13:04:01.449Z,101665.39
2019-04-30T13:06:30.109Z,101670.63
2019-04-30T13:09:03.074Z,101667.82
2019-04-30T13:11:36.552Z,101669.81
2019-04-30T13:14:06.280Z,101661.04
2019-04-30T13:16:35.146Z,101661.39
2019-04-30T13:19:03.622Z,101664.64
2019-04-30T13:21:32.033Z,101661.38
2019-04-30T13:24:00.457Z,101659.64
2019-04-30T13:26:28.878Z,101657.42
2019-04-30T13:28:58.939Z,101649.53
2019-04-30T13:31:29.410Z,101647.20
2019-04-30T13:34:03.102Z,101640.62
2019-04-30T13:36:31.563Z,101637.59
2019-04-30T13:39:02.695Z,101641.45
2019-04-30T13:41:43.044Z,101643.53
2019-04-30T13:44:12.642Z,101639.47
2019-04-30T13:46:42.161Z,101636.06
2019-04-30T13:49:10.574Z,101639.80
2019-04-30T13:51:38.998Z,101634.36
2019-04-30T13:54:11.275Z,101627.00
2019-04-30T13:56:39.833Z,101632.51
2019-04-30T13:59:08.279Z,101631.61
2019-04-30T14:01:38.946Z,101632.77
2019-04-30T14:04:18.111Z,101634.73
2019-04-30T14:07:08.561Z,101634.48
2019-04-30T14:09:36.983Z,101625.00
2019-04-30T14:12:05.633Z,101633.13
2019-04-30T14:14:34.064Z,101625.58
2019-04-30T14:17:03.889Z,101619.36
2019-04-30T14:19:32.367Z,101622.85
2019-04-30T14:22:00.803Z,101621.39
2019-04-30T14:24:29.198Z,101620.61
2019-04-30T14:27:01.324Z,101615.30
2019-04-30T14:29:30.208Z,101614.26
2019-04-30T14:31:59.607Z,101617.90
2019-04-30T14:34:28.709Z,101617.94
2019-04-30T14:36:59.180Z,101620.88
2019-04-30T14:39:29.237Z,101619.23
2019-04-30T14:42:02.287Z,101609.17
2019-04-30T14:44:33.521Z,101614.88
2019-04-30T14:47:11.909Z,101611.02
2019-04-30T14:49:41.501Z,101612.09
2019-04-30T14:52:11.227Z,101613.61
2019-04-30T14:54:41.364Z,101615.81
2019-04-30T14:57:13.193Z,101621.36
2019-04-30T14:59:49.513Z,101615.77
2019-04-30T15:02:34.944Z,101613.47
2019-04-30T15:05:04.538Z,101600.63
2019-04-30T15:07:34.038Z,101603.55
2019-04-30T15:10:02.707Z,101600.82
2019-04-30T15:12:31.111Z,101599.94
2019-04-30T15:14:59.521Z,101589.94
2019-04-30T15:17:27.962Z,101593.77
2019-04-30T15:19:58.786Z,101597.29
2019-04-30T15:22:29.094Z,101590.72
2019-04-30T15:25:00.403Z,101585.36
2019-04-30T15:27:29.027Z,101587.33
2019-04-30T15:29:57.572Z,101582.73
2019-04-30T15:32:26.030Z,101589.59
2019-04-30T15:34:55.507Z,101585.94
2019-04-30T15:37:24.144Z,101588.16
2019-04-30T15:39:52.566Z,101588.31
2019-04-30T15:42:23.783Z,101583.16
2019-04-30T15:44:52.218Z,101584.62
2019-04-30T15:47:22.461Z,101585.23
2019-04-30T15:49:50.925Z,101583.31
2019-04-30T15:52:22.881Z,101582.45
2019-04-30T15:54:51.355Z,101581.83
2019-04-30T15:57:23.453Z,101585.83
2019-04-30T15:59:51.927Z,101585.55
2019-04-30T16:02:29.079Z,101580.86
2019-04-30T16:05:17.615Z,101578.06
2019-04-30T16:07:49.218Z,101572.27
2019-04-30T16:10:23.606Z,101569.56
2019-04-30T16:12:53.654Z,101568.61
2019-04-30T16:15:22.103Z,101576.77
2019-04-30T16:17:52.168Z,101574.61
2019-04-30T16:20:24.203Z,101573.36
2019-04-30T16:22:52.735Z,101571.27
2019-04-30T16:25:21.175Z,101572.02
2019-04-30T16:27:49.619Z,101569.23
2019-04-30T16:30:19.544Z,101567.34
2019-04-30T16:32:50.485Z,101570.99
2019-04-30T16:35:21.017Z,101574.58
2019-04-30T16:37:49.703Z,101571.94
2019-04-30T16:40:19.009Z,101572.55
2019-04-30T16:42:48.983Z,101569.20
2019-04-30T16:45:19.452Z,101574.49
2019-04-30T16:47:48.066Z,101570.17
2019-04-30T16:50:18.703Z,101569.77
2019-04-30T16:52:46.968Z,101568.31
2019-04-30T16:55:15.484Z,101565.53
2019-04-30T16:57:43.898Z,101563.02
2019-04-30T17:00:15.486Z,101568.42
2019-04-30T17:02:46.534Z,101572.17
2019-04-30T17:05:23.137Z,101577.52
2019-04-30T17:08:05.194Z,101574.31
2019-04-30T17:10:39.385Z,101572.95
2019-04-30T17:13:25.768Z,101571.83
2019-04-30T17:15:55.825Z,101568.82
2019-04-30T17:18:24.230Z,101570.88
2019-04-30T17:20:55.128Z,101574.38
2019-04-30T17:23:23.609Z,101572.20
2019-04-30T17:25:52.042Z,101576.60
2019-04-30T17:28:20.456Z,101574.33
2019-04-30T17:30:51.408Z,101575.44
2019-04-30T17:33:19.817Z,101574.34
2019-04-30T17:35:49.880Z,101568.27
2019-04-30T17:38:18.452Z,101573.67
2019-04-30T17:40:49.478Z,101570.89
2019-04-30T17:43:17.012Z,101569.08
2019-04-30T17:45:45.435Z,101568.82
2019-04-30T17:48:13.875Z,101563.94
2019-04-30T17:50:42.305Z,101571.52
2019-04-30T17:53:10.704Z,101577.09
2019-04-30T17:55:39.266Z,101566.24
2019-04-30T17:58:09.567Z,101570.83
2019-04-30T18:00:39.632Z,101568.09
2019-04-30T18:03:08.864Z,101564.51
2019-04-30T18:05:39.130Z,101570.68
2019-04-30T18:08:07.910Z,101566.48
2019-04-30T18:10:43.399Z,101571.59
2019-04-30T18:13:11.892Z,101572.32
2019-04-30T18:15:42.776Z,101571.22
2019-04-30T18:18:18.672Z,101569.41
2019-04-30T18:20:50.067Z,101576.97
2019-04-30T18:23:36.101Z,101580.81
2019-04-30T18:26:08.833Z,101566.83
2019-04-30T18:28:37.237Z,101572.91
2019-04-30T18:31:08.855Z,101573.50
2019-04-30T18:33:40.330Z,101576.56
2019-04-30T18:36:09.590Z,101576.84
2019-04-30T18:38:39.197Z,101573.91
2019-04-30T18:41:09.470Z,101575.13
2019-04-30T18:43:40.351Z,101567.46
2019-04-30T18:46:10.604Z,101566.14
2019-04-30T18:48:39.352Z,101570.03
2019-04-30T18:51:23.732Z,101564.05
2019-04-30T18:53:39.732Z,101569.28
2019-04-30T18:56:13.928Z,101571.59
2019-04-30T18:58:56.013Z,101571.78
2019-04-30T19:01:43.040Z,101573.78
2019-04-30T19:04:02.031Z,101574.12
2019-04-30T19:06:45.358Z,101586.70
2019-04-30T19:09:16.078Z,101583.00
2019-04-30T19:11:51.202Z,101590.02
2019-04-30T19:14:21.255Z,101591.55
2019-04-30T19:17:02.530Z,101589.19
2019-04-30T19:19:49.235Z,101590.02
2019-04-30T19:22:18.704Z,101595.52
2019-04-30T19:24:56.125Z,101595.68
2019-04-30T19:27:24.819Z,101592.59
2019-04-30T19:29:53.768Z,101589.44
2019-04-30T19:32:24.496Z,101589.24
2019-04-30T19:34:53.087Z,101589.08
2019-04-30T19:37:21.778Z,101582.50
2019-04-30T19:39:51.113Z,101586.00
2019-04-30T19:42:22.028Z,101583.33
2019-04-30T19:44:58.982Z,101585.66
2019-04-30T19:47:30.689Z,101583.27
2019-04-30T19:50:14.112Z,101587.57
2019-04-30T19:52:44.073Z,101588.56
2019-04-30T19:55:15.392Z,101587.88
2019-04-30T19:57:48.378Z,101588.17
2019-04-30T20:00:17.298Z,101589.41
2019-04-30T20:02:46.230Z,101584.08
2019-04-30T20:05:14.717Z,101590.98
2019-04-30T20:07:44.702Z,101585.13
2019-04-30T20:10:13.452Z,101591.97
2019-04-30T20:12:42.089Z,101594.75
2019-04-30T20:15:19.353Z,101599.85
2019-04-30T20:17:41.130Z,101604.56
2019-04-30T20:20:09.902Z,101600.02
2019-04-30T20:22:38.927Z,101596.70
2019-04-30T20:25:12.071Z,101592.17
2019-04-30T20:27:39.776Z,101593.91
2019-04-30T20:30:14.983Z,101597.36
2019-04-30T20:32:42.720Z,101588.50
2019-04-30T20:35:11.249Z,101594.19
2019-04-30T20:37:59.460Z,101584.51
2019-04-30T20:40:42.646Z,101590.70
2019-04-30T20:43:57.752Z,101581.23
2019-04-30T20:46:34.817Z,101582.27
2019-04-30T20:48:59.639Z,101578.91
2019-04-30T20:51:29.104Z,101584.16
2019-04-30T20:53:59.203Z,101575.63
2019-04-30T20:56:29.143Z,101574.73
2019-04-30T20:59:02.355Z,101569.86
2019-04-30T21:01:29.381Z,101574.61
2019-04-30T21:03:58.057Z,101572.94
2019-04-30T21:06:26.451Z,101570.17
2019-04-30T21:08:54.927Z,101574.52
2019-04-30T21:11:23.443Z,101578.35
2019-04-30T21:13:51.859Z,101574.42
2019-04-30T21:16:20.281Z,101570.31
2019-04-30T21:18:52.541Z,101569.96
2019-04-30T21:21:22.042Z,101563.52
2019-04-30T21:23:50.495Z,101571.19
2019-04-30T21:26:19.633Z,101561.00
2019-04-30T21:28:49.459Z,101562.58
2019-04-30T21:31:37.415Z,101560.66
2019-04-30T21:34:13.464Z,101566.26
2019-04-30T21:36:41.886Z,101567.23
2019-04-30T21:39:10.921Z,101565.20
2019-04-30T21:41:39.607Z,101564.70
2019-04-30T21:44:08.131Z,101552.95
2019-04-30T21:46:40.374Z,101556.94
2019-04-30T21:49:08.974Z,101554.41
2019-04-30T21:51:39.971Z,101551.16
2019-04-30T21:54:07.711Z,101547.79
2019-04-30T21:56:36.839Z,101545.30
2019-04-30T21:59:07.988Z,101553.98
2019-04-30T22:01:35.627Z,101553.42
2019-04-30T22:04:04.294Z,101547.31
2019-04-30T22:06:32.726Z,101550.97
2019-04-30T22:09:02.631Z,101551.39
2019-04-30T22:11:31.041Z,101548.06
2019-04-30T22:14:09.919Z,101551.95
2019-04-30T22:16:40.858Z,101555.52
2019-04-30T22:19:09.444Z,101554.12
2019-04-30T22:21:39.594Z,101550.41
2019-04-30T22:24:08.170Z,101538.00
2019-04-30T22:26:38.033Z,101542.70
2019-04-30T22:29:06.480Z,101537.58
2019-04-30T22:31:34.944Z,101534.77
2019-04-30T22:34:06.081Z,101528.57
2019-04-30T22:36:36.176Z,101526.82
2019-04-30T22:39:24.865Z,101526.97
2019-04-30T22:42:01.417Z,101520.05
2019-04-30T22:44:29.899Z,101522.91
2019-04-30T22:47:00.261Z,101522.50
2019-04-30T22:49:28.441Z,101524.13
2019-04-30T22:51:56.918Z,101514.89
2019-04-30T22:54:25.400Z,101520.70
2019-04-30T22:56:53.840Z,101517.91
2019-04-30T22:59:22.720Z,101517.86
2019-04-30T23:02:01.581Z,101522.89
2019-04-30T23:04:31.638Z,101523.08
2019-04-30T23:07:00.056Z,101517.89
2019-04-30T23:09:28.692Z,101517.44
2019-04-30T23:11:57.124Z,101516.22
2019-04-30T23:14:25.568Z,101511.20
2019-04-30T23:16:53.977Z,101515.59
2019-04-30T23:19:23.682Z,101514.02
2019-04-30T23:21:52.110Z,101506.97
2019-04-30T23:24:20.549Z,101507.58
2019-04-30T23:26:48.986Z,101504.91
2019-04-30T23:29:17.475Z,101498.24
2019-04-30T23:31:48.356Z,101499.27
2019-04-30T23:34:18.308Z,101501.45
2019-04-30T23:36:47.484Z,101501.70
2019-04-30T23:39:16.052Z,101489.39
2019-04-30T23:41:44.466Z,101490.31
2019-04-30T23:44:13.523Z,101492.86
2019-04-30T23:46:41.973Z,101482.61
2019-04-30T23:49:10.429Z,101480.91
2019-04-30T23:51:38.948Z,101480.98
2019-04-30T23:54:07.378Z,101476.78
2019-04-30T23:56:35.792Z,101472.73
2019-04-30T23:59:04.298Z,101476.77
